sensor_id;sensor_type;location;lat;lon;timestamp;pressure;altitude;pressure_sealevel;temperature;humidity
16793;BME280;8513;42.662;23.350;2023-10-08T00:02:03;95350.78;;;15.59;36.64
16793;BME280;8513;42.662;23.350;2023-10-08T00:04:32;95340.84;;;15.53;36.78
16793;BME280;8513;42.662;23.350;2023-10-08T00:07:03;95350.06;;;15.65;36.58
16793;BME280;8513;42.662;23.350;2023-10-08T00:09:32;95346.16;;;15.53;37.17
16793;BME280;8513;42.662;23.350;2023-10-08T00:12:01;95353.47;;;15.51;37.45
16793;BME280;8513;42.662;23.350;2023-10-08T00:14:27;95344.13;;;15.32;37.55
16793;BME280;8513;42.662;23.350;2023-10-08T00:16:53;95341.72;;;15.14;38.16
16793;BME280;8513;42.662;23.350;2023-10-08T00:19:19;95332.09;;;15.13;38.05
16793;BME280;8513;42.662;23.350;2023-10-08T00:21:44;95324.41;;;15.26;37.99
16793;BME280;8513;42.662;23.350;2023-10-08T00:24:11;95332.72;;;15.23;38.34
16793;BME280;8513;42.662;23.350;2023-10-08T00:26:40;95329.88;;;15.33;37.67
16793;BME280;8513;42.662;23.350;2023-10-08T00:29:06;95329.16;;;15.39;38.01
16793;BME280;8513;42.662;23.350;2023-10-08T00:31:45;95335.38;;;15.23;38.35
16793;BME280;8513;42.662;23.350;2023-10-08T00:34:14;95336.78;;;15.03;38.77
16793;BME280;8513;42.662;23.350;2023-10-08T00:36:41;95323.44;;;14.88;39.00
16793;BME280;8513;42.662;23.350;2023-10-08T00:39:10;95319.00;;;14.72;39.33
16793;BME280;8513;42.662;23.350;2023-10-08T00:41:50;95339.53;;;14.62;39.61
16793;BME280;8513;42.662;23.350;2023-10-08T00:44:16;95336.56;;;14.73;39.40
16793;BME280;8513;42.662;23.350;2023-10-08T00:46:49;95328.94;;;14.62;39.68
16793;BME280;8513;42.662;23.350;2023-10-08T00:49:22;95314.91;;;14.61;39.54
16793;BME280;8513;42.662;23.350;2023-10-08T00:51:48;95322.00;;;14.69;39.65
16793;BME280;8513;42.662;23.350;2023-10-08T00:54:26;95312.13;;;14.54;40.09
16793;BME280;8513;42.662;23.350;2023-10-08T00:56:53;95307.16;;;14.60;39.87
16793;BME280;8513;42.662;23.350;2023-10-08T00:59:23;95307.63;;;14.63;39.71
16793;BME280;8513;42.662;23.350;2023-10-08T01:01:51;95310.25;;;14.71;39.76
16793;BME280;8513;42.662;23.350;2023-10-08T01:04:21;95315.06;;;14.68;39.78
16793;BME280;8513;42.662;23.350;2023-10-08T01:06:51;95314.56;;;14.48;40.06
16793;BME280;8513;42.662;23.350;2023-10-08T01:09:20;95316.75;;;14.52;40.00
16793;BME280;8513;42.662;23.350;2023-10-08T01:12:11;95319.72;;;14.58;40.02
16793;BME280;8513;42.662;23.350;2023-10-08T01:14:55;95315.06;;;14.35;40.41
16793;BME280;8513;42.662;23.350;2023-10-08T01:17:38;95312.25;;;14.45;40.33
16793;BME280;8513;42.662;23.350;2023-10-08T01:20:15;95318.72;;;14.42;40.53
16793;BME280;8513;42.662;23.350;2023-10-08T01:23:00;95308.16;;;14.34;40.20
16793;BME280;8513;42.662;23.350;2023-10-08T01:25:35;95318.72;;;14.34;40.11
16793;BME280;8513;42.662;23.350;2023-10-08T01:28:01;95317.72;;;14.43;39.89
16793;BME280;8513;42.662;23.350;2023-10-08T01:30:33;95310.28;;;14.47;39.64
16793;BME280;8513;42.662;23.350;2023-10-08T01:33:00;95313.75;;;14.47;39.49
16793;BME280;8513;42.662;23.350;2023-10-08T01:35:28;95315.94;;;14.36;39.92
16793;BME280;8513;42.662;23.350;2023-10-08T01:37:56;95322.69;;;14.13;40.31
16793;BME280;8513;42.662;23.350;2023-10-08T01:40:23;95311.63;;;14.18;40.45
16793;BME280;8513;42.662;23.350;2023-10-08T01:42:52;95312.44;;;14.27;40.11
16793;BME280;8513;42.662;23.350;2023-10-08T01:45:18;95320.06;;;14.22;40.05
16793;BME280;8513;42.662;23.350;2023-10-08T01:47:44;95316.59;;;14.21;40.11
16793;BME280;8513;42.662;23.350;2023-10-08T01:50:10;95319.41;;;14.20;40.37
16793;BME280;8513;42.662;23.350;2023-10-08T01:52:56;95320.22;;;14.20;40.36
16793;BME280;8513;42.662;23.350;2023-10-08T01:55:21;95317.94;;;14.09;40.53
16793;BME280;8513;42.662;23.350;2023-10-08T01:57:49;95311.66;;;13.94;40.84
16793;BME280;8513;42.662;23.350;2023-10-08T02:00:15;95319.41;;;13.95;41.01
16793;BME280;8513;42.662;23.350;2023-10-08T02:02:46;95323.22;;;14.01;40.87
16793;BME280;8513;42.662;23.350;2023-10-08T02:05:11;95322.88;;;13.96;40.58
16793;BME280;8513;42.662;23.350;2023-10-08T02:07:40;95321.56;;;14.00;40.83
16793;BME280;8513;42.662;23.350;2023-10-08T02:10:07;95317.25;;;14.15;40.31
16793;BME280;8513;42.662;23.350;2023-10-08T02:12:33;95314.13;;;14.03;40.46
16793;BME280;8513;42.662;23.350;2023-10-08T02:14:58;95308.00;;;13.95;40.30
16793;BME280;8513;42.662;23.350;2023-10-08T02:17:23;95317.41;;;13.89;40.35
16793;BME280;8513;42.662;23.350;2023-10-08T02:19:49;95307.34;;;13.84;40.28
16793;BME280;8513;42.662;23.350;2023-10-08T02:22:14;95311.97;;;14.07;40.22
16793;BME280;8513;42.662;23.350;2023-10-08T02:24:40;95308.84;;;14.03;40.07
16793;BME280;8513;42.662;23.350;2023-10-08T02:27:05;95302.22;;;13.99;40.01
16793;BME280;8513;42.662;23.350;2023-10-08T02:29:32;95298.28;;;14.03;40.17
16793;BME280;8513;42.662;23.350;2023-10-08T02:31:57;95307.66;;;14.06;40.07
16793;BME280;8513;42.662;23.350;2023-10-08T02:34:23;95297.59;;;14.09;40.06
16793;BME280;8513;42.662;23.350;2023-10-08T02:36:48;95298.56;;;14.08;40.06
16793;BME280;8513;42.662;23.350;2023-10-08T02:39:14;95298.44;;;13.94;40.72
16793;BME280;8513;42.662;23.350;2023-10-08T02:41:48;95293.97;;;13.86;41.08
16793;BME280;8513;42.662;23.350;2023-10-08T02:44:15;95291.31;;;13.94;40.98
16793;BME280;8513;42.662;23.350;2023-10-08T02:46:44;95289.34;;;13.80;41.48
16793;BME280;8513;42.662;23.350;2023-10-08T02:49:20;95284.72;;;13.90;40.91
16793;BME280;8513;42.662;23.350;2023-10-08T02:51:52;95295.44;;;13.88;41.15
16793;BME280;8513;42.662;23.350;2023-10-08T02:54:19;95296.59;;;13.86;41.12
16793;BME280;8513;42.662;23.350;2023-10-08T02:56:56;95295.25;;;13.74;41.63
16793;BME280;8513;42.662;23.350;2023-10-08T02:59:28;95294.31;;;13.83;41.25
16793;BME280;8513;42.662;23.350;2023-10-08T03:01:53;95294.28;;;13.75;41.71
16793;BME280;8513;42.662;23.350;2023-10-08T03:04:21;95309.16;;;13.84;41.56
16793;BME280;8513;42.662;23.350;2023-10-08T03:06:51;95306.34;;;13.77;41.99
16793;BME280;8513;42.662;23.350;2023-10-08T03:09:21;95308.13;;;13.60;42.31
16793;BME280;8513;42.662;23.350;2023-10-08T03:11:49;95296.06;;;13.50;43.07
16793;BME280;8513;42.662;23.350;2023-10-08T03:14:19;95297.53;;;13.44;42.98
16793;BME280;8513;42.662;23.350;2023-10-08T03:16:51;95299.03;;;13.38;43.04
16793;BME280;8513;42.662;23.350;2023-10-08T03:19:18;95304.66;;;13.43;42.90
16793;BME280;8513;42.662;23.350;2023-10-08T03:21:48;95295.59;;;13.54;42.86
16793;BME280;8513;42.662;23.350;2023-10-08T03:24:19;95301.34;;;13.50;43.03
16793;BME280;8513;42.662;23.350;2023-10-08T03:27:00;95296.66;;;13.19;44.40
16793;BME280;8513;42.662;23.350;2023-10-08T03:29:36;95288.81;;;13.01;45.11
16793;BME280;8513;42.662;23.350;2023-10-08T03:32:08;95290.69;;;13.17;45.13
16793;BME280;8513;42.662;23.350;2023-10-08T03:34:38;95293.28;;;13.00;45.20
16793;BME280;8513;42.662;23.350;2023-10-08T03:37:08;95287.69;;;13.12;44.92
16793;BME280;8513;42.662;23.350;2023-10-08T03:39:33;95285.16;;;12.86;46.26
16793;BME280;8513;42.662;23.350;2023-10-08T03:42:24;95286.00;;;12.94;46.09
16793;BME280;8513;42.662;23.350;2023-10-08T03:44:51;95279.09;;;13.01;45.56
16793;BME280;8513;42.662;23.350;2023-10-08T03:47:20;95281.06;;;12.91;45.16
16793;BME280;8513;42.662;23.350;2023-10-08T03:49:49;95275.47;;;13.02;45.15
16793;BME280;8513;42.662;23.350;2023-10-08T03:52:20;95276.66;;;13.08;44.89
16793;BME280;8513;42.662;23.350;2023-10-08T03:54:55;95272.16;;;13.00;45.12
16793;BME280;8513;42.662;23.350;2023-10-08T03:57:39;95271.50;;;12.98;45.29
16793;BME280;8513;42.662;23.350;2023-10-08T04:00:09;95279.41;;;12.98;44.83
16793;BME280;8513;42.662;23.350;2023-10-08T04:02:39;95269.06;;;13.05;44.32
16793;BME280;8513;42.662;23.350;2023-10-08T04:05:06;95259.63;;;13.02;44.11
16793;BME280;8513;42.662;23.350;2023-10-08T04:07:44;95257.03;;;13.11;43.82
16793;BME280;8513;42.662;23.350;2023-10-08T04:10:28;95255.19;;;13.03;43.33
16793;BME280;8513;42.662;23.350;2023-10-08T04:13:06;95260.81;;;13.08;42.80
16793;BME280;8513;42.662;23.350;2023-10-08T04:15:35;95249.56;;;13.06;42.79
16793;BME280;8513;42.662;23.350;2023-10-08T04:18:09;95279.56;;;12.89;43.41
16793;BME280;8513;42.662;23.350;2023-10-08T04:20:35;95270.31;;;12.93;43.27
16793;BME280;8513;42.662;23.350;2023-10-08T04:23:09;95267.66;;;12.85;43.85
16793;BME280;8513;42.662;23.350;2023-10-08T04:25:47;95263.72;;;12.89;43.98
16793;BME280;8513;42.662;23.350;2023-10-08T04:28:19;95260.56;;;12.85;43.80
16793;BME280;8513;42.662;23.350;2023-10-08T04:30:46;95259.06;;;12.83;44.12
16793;BME280;8513;42.662;23.350;2023-10-08T04:33:13;95263.38;;;12.84;44.27
16793;BME280;8513;42.662;23.350;2023-10-08T04:35:41;95265.31;;;12.73;44.55
16793;BME280;8513;42.662;23.350;2023-10-08T04:38:19;95266.19;;;12.90;44.31
16793;BME280;8513;42.662;23.350;2023-10-08T04:40:49;95262.88;;;12.88;44.18
16793;BME280;8513;42.662;23.350;2023-10-08T04:43:17;95263.69;;;12.80;44.48
16793;BME280;8513;42.662;23.350;2023-10-08T04:45:50;95267.84;;;12.91;44.34
16793;BME280;8513;42.662;23.350;2023-10-08T04:48:16;95269.69;;;12.56;45.17
16793;BME280;8513;42.662;23.350;2023-10-08T04:50:49;95280.44;;;12.63;44.87
16793;BME280;8513;42.662;23.350;2023-10-08T04:53:28;95278.66;;;12.72;44.81
16793;BME280;8513;42.662;23.350;2023-10-08T04:56:14;95279.03;;;12.85;44.82
16793;BME280;8513;42.662;23.350;2023-10-08T04:58:46;95267.09;;;12.65;45.33
16793;BME280;8513;42.662;23.350;2023-10-08T05:01:21;95274.13;;;12.56;45.56
16793;BME280;8513;42.662;23.350;2023-10-08T05:03:47;95272.13;;;12.84;45.09
16793;BME280;8513;42.662;23.350;2023-10-08T05:06:29;95274.44;;;12.87;44.73
16793;BME280;8513;42.662;23.350;2023-10-08T05:09:05;95280.88;;;12.93;44.53
16793;BME280;8513;42.662;23.350;2023-10-08T05:11:47;95278.25;;;12.93;44.51
16793;BME280;8513;42.662;23.350;2023-10-08T05:14:19;95280.19;;;12.91;44.80
16793;BME280;8513;42.662;23.350;2023-10-08T05:17:01;95279.25;;;12.92;44.89
16793;BME280;8513;42.662;23.350;2023-10-08T05:19:50;95270.16;;;12.86;45.31
16793;BME280;8513;42.662;23.350;2023-10-08T05:22:38;95278.25;;;12.93;44.88
16793;BME280;8513;42.662;23.350;2023-10-08T05:25:04;95285.84;;;13.04;45.06
16793;BME280;8513;42.662;23.350;2023-10-08T05:27:40;95285.88;;;13.12;44.98
16793;BME280;8513;42.662;23.350;2023-10-08T05:30:22;95285.59;;;13.23;44.78
16793;BME280;8513;42.662;23.350;2023-10-08T05:32:57;95282.97;;;13.23;45.00
16793;BME280;8513;42.662;23.350;2023-10-08T05:35:35;95282.06;;;13.07;45.88
16793;BME280;8513;42.662;23.350;2023-10-08T05:38:08;95290.22;;;13.21;45.41
16793;BME280;8513;42.662;23.350;2023-10-08T05:40:53;95294.41;;;13.32;45.29
16793;BME280;8513;42.662;23.350;2023-10-08T05:43:21;95292.69;;;13.23;45.47
16793;BME280;8513;42.662;23.350;2023-10-08T05:46:13;95292.91;;;13.30;45.01
16793;BME280;8513;42.662;23.350;2023-10-08T05:48:54;95298.69;;;13.33;45.32
16793;BME280;8513;42.662;23.350;2023-10-08T05:51:37;95298.84;;;13.32;45.24
16793;BME280;8513;42.662;23.350;2023-10-08T05:54:15;95296.69;;;13.27;44.88
16793;BME280;8513;42.662;23.350;2023-10-08T05:57:04;95297.78;;;13.16;44.47
16793;BME280;8513;42.662;23.350;2023-10-08T05:59:46;95294.91;;;13.44;43.75
16793;BME280;8513;42.662;23.350;2023-10-08T06:05:04;95302.22;;;13.83;42.66
16793;BME280;8513;42.662;23.350;2023-10-08T06:07:39;95300.25;;;13.85;42.63
16793;BME280;8513;42.662;23.350;2023-10-08T06:13:13;95299.59;;;13.99;42.24
16793;BME280;8513;42.662;23.350;2023-10-08T06:15:44;95289.97;;;13.82;42.40
16793;BME280;8513;42.662;23.350;2023-10-08T06:18:16;95295.13;;;13.92;42.44
16793;BME280;8513;42.662;23.350;2023-10-08T06:20:43;95296.44;;;14.04;42.21
16793;BME280;8513;42.662;23.350;2023-10-08T06:23:13;95290.63;;;14.08;42.38
16793;BME280;8513;42.662;23.350;2023-10-08T06:25:42;95287.19;;;14.08;42.55
16793;BME280;8513;42.662;23.350;2023-10-08T06:28:14;95287.16;;;14.24;42.16
16793;BME280;8513;42.662;23.350;2023-10-08T06:30:41;95289.66;;;14.26;42.23
16793;BME280;8513;42.662;23.350;2023-10-08T06:33:10;95304.47;;;14.43;41.95
16793;BME280;8513;42.662;23.350;2023-10-08T06:35:35;95303.50;;;14.61;42.26
16793;BME280;8513;42.662;23.350;2023-10-08T06:38:01;95304.78;;;14.65;42.40
16793;BME280;8513;42.662;23.350;2023-10-08T06:40:34;95292.03;;;14.76;42.25
16793;BME280;8513;42.662;23.350;2023-10-08T06:43:02;95283.28;;;14.76;41.78
16793;BME280;8513;42.662;23.350;2023-10-08T06:45:41;95283.38;;;14.91;41.49
16793;BME280;8513;42.662;23.350;2023-10-08T06:48:07;95279.03;;;14.98;41.35
16793;BME280;8513;42.662;23.350;2023-10-08T06:50:33;95282.63;;;15.13;41.25
16793;BME280;8513;42.662;23.350;2023-10-08T06:53:03;95280.09;;;15.20;40.79
16793;BME280;8513;42.662;23.350;2023-10-08T06:55:34;95270.81;;;15.24;41.00
16793;BME280;8513;42.662;23.350;2023-10-08T06:58:03;95264.09;;;15.36;40.33
16793;BME280;8513;42.662;23.350;2023-10-08T07:00:34;95284.41;;;15.44;39.90
16793;BME280;8513;42.662;23.350;2023-10-08T07:03:06;95279.94;;;15.44;39.92
16793;BME280;8513;42.662;23.350;2023-10-08T07:05:45;95277.84;;;15.63;39.82
16793;BME280;8513;42.662;23.350;2023-10-08T07:08:22;95274.16;;;15.72;39.59
16793;BME280;8513;42.662;23.350;2023-10-08T07:10:53;95279.16;;;15.90;39.57
16793;BME280;8513;42.662;23.350;2023-10-08T07:13:21;95275.69;;;15.90;39.99
16793;BME280;8513;42.662;23.350;2023-10-08T07:15:50;95278.16;;;15.91;39.38
16793;BME280;8513;42.662;23.350;2023-10-08T07:18:16;95261.69;;;15.96;39.36
16793;BME280;8513;42.662;23.350;2023-10-08T07:20:51;95278.03;;;16.07;39.01
16793;BME280;8513;42.662;23.350;2023-10-08T07:23:23;95267.78;;;16.19;39.01
16793;BME280;8513;42.662;23.350;2023-10-08T07:25:57;95261.72;;;16.34;38.98
16793;BME280;8513;42.662;23.350;2023-10-08T07:28:44;95255.94;;;16.45;38.77
16793;BME280;8513;42.662;23.350;2023-10-08T07:31:14;95258.13;;;16.56;38.41
16793;BME280;8513;42.662;23.350;2023-10-08T07:33:53;95248.91;;;16.67;38.20
16793;BME280;8513;42.662;23.350;2023-10-08T07:36:26;95247.97;;;16.74;38.33
16793;BME280;8513;42.662;23.350;2023-10-08T07:38:56;95251.66;;;16.88;38.25
16793;BME280;8513;42.662;23.350;2023-10-08T07:41:22;95241.13;;;16.95;37.89
16793;BME280;8513;42.662;23.350;2023-10-08T07:43:48;95230.56;;;17.02;37.75
16793;BME280;8513;42.662;23.350;2023-10-08T07:46:32;95236.59;;;17.10;37.99
16793;BME280;8513;42.662;23.350;2023-10-08T07:48:58;95228.28;;;17.13;37.73
16793;BME280;8513;42.662;23.350;2023-10-08T07:51:24;95216.88;;;17.19;38.85
16793;BME280;8513;42.662;23.350;2023-10-08T07:53:52;95227.09;;;17.37;38.52
16793;BME280;8513;42.662;23.350;2023-10-08T07:56:25;95218.38;;;17.44;38.48
16793;BME280;8513;42.662;23.350;2023-10-08T07:58:54;95218.09;;;17.38;39.53
16793;BME280;8513;42.662;23.350;2023-10-08T08:01:23;95218.81;;;17.47;38.68
16793;BME280;8513;42.662;23.350;2023-10-08T08:03:50;95220.91;;;17.52;38.09
16793;BME280;8513;42.662;23.350;2023-10-08T08:06:16;95221.59;;;17.60;38.67
16793;BME280;8513;42.662;23.350;2023-10-08T08:08:42;95221.97;;;17.57;36.75
16793;BME280;8513;42.662;23.350;2023-10-08T08:11:09;95221.19;;;17.63;38.11
16793;BME280;8513;42.662;23.350;2023-10-08T08:13:39;95218.03;;;17.75;37.63
16793;BME280;8513;42.662;23.350;2023-10-08T08:16:07;95198.31;;;17.84;38.75
16793;BME280;8513;42.662;23.350;2023-10-08T08:18:50;95198.56;;;17.89;36.82
16793;BME280;8513;42.662;23.350;2023-10-08T08:21:18;95203.88;;;17.89;37.06
16793;BME280;8513;42.662;23.350;2023-10-08T08:23:48;95192.88;;;17.99;37.78
16793;BME280;8513;42.662;23.350;2023-10-08T08:26:21;95200.63;;;18.22;38.48
16793;BME280;8513;42.662;23.350;2023-10-08T08:31:22;95189.66;;;18.38;31.07
16793;BME280;8513;42.662;23.350;2023-10-08T08:33:48;95175.03;;;18.56;30.89
16793;BME280;8513;42.662;23.350;2023-10-08T08:36:26;95178.44;;;18.78;31.14
16793;BME280;8513;42.662;23.350;2023-10-08T08:38:52;95173.81;;;19.00;30.19
16793;BME280;8513;42.662;23.350;2023-10-08T08:41:19;95168.97;;;19.43;28.64
16793;BME280;8513;42.662;23.350;2023-10-08T08:43:50;95174.31;;;19.43;29.35
16793;BME280;8513;42.662;23.350;2023-10-08T08:46:34;95179.06;;;19.54;28.83
16793;BME280;8513;42.662;23.350;2023-10-08T08:49:07;95164.09;;;19.60;27.85
16793;BME280;8513;42.662;23.350;2023-10-08T08:51:34;95161.88;;;19.70;28.63
16793;BME280;8513;42.662;23.350;2023-10-08T08:54:00;95165.75;;;19.88;28.61
16793;BME280;8513;42.662;23.350;2023-10-08T08:56:35;95164.13;;;19.93;27.65
16793;BME280;8513;42.662;23.350;2023-10-08T08:59:02;95164.31;;;20.12;27.92
16793;BME280;8513;42.662;23.350;2023-10-08T09:01:29;95172.94;;;20.14;27.42
16793;BME280;8513;42.662;23.350;2023-10-08T09:04:00;95167.59;;;20.27;28.07
16793;BME280;8513;42.662;23.350;2023-10-08T09:06:37;95166.94;;;20.38;28.11
16793;BME280;8513;42.662;23.350;2023-10-08T09:09:07;95166.28;;;20.49;27.31
16793;BME280;8513;42.662;23.350;2023-10-08T09:11:53;95162.63;;;20.37;27.58
16793;BME280;8513;42.662;23.350;2023-10-08T09:14:21;95162.59;;;20.44;27.31
16793;BME280;8513;42.662;23.350;2023-10-08T09:16:48;95158.50;;;20.41;29.20
16793;BME280;8513;42.662;23.350;2023-10-08T09:19:15;95146.38;;;20.39;27.96
16793;BME280;8513;42.662;23.350;2023-10-08T09:21:45;95162.00;;;20.42;28.27
16793;BME280;8513;42.662;23.350;2023-10-08T09:24:24;95146.63;;;20.31;28.35
16793;BME280;8513;42.662;23.350;2023-10-08T09:26:52;95146.41;;;20.32;29.01
16793;BME280;8513;42.662;23.350;2023-10-08T09:29:17;95130.34;;;20.45;28.01
16793;BME280;8513;42.662;23.350;2023-10-08T09:31:52;95137.75;;;20.57;27.20
16793;BME280;8513;42.662;23.350;2023-10-08T09:34:21;95137.72;;;20.63;27.26
16793;BME280;8513;42.662;23.350;2023-10-08T09:36:48;95135.22;;;20.68;27.52
16793;BME280;8513;42.662;23.350;2023-10-08T09:39:14;95145.28;;;20.80;26.73
16793;BME280;8513;42.662;23.350;2023-10-08T09:41:56;95139.22;;;20.98;26.65
16793;BME280;8513;42.662;23.350;2023-10-08T09:44:22;95137.53;;;21.03;26.01
16793;BME280;8513;42.662;23.350;2023-10-08T09:46:54;95136.91;;;21.08;26.19
16793;BME280;8513;42.662;23.350;2023-10-08T09:49:52;95135.38;;;21.25;26.27
16793;BME280;8513;42.662;23.350;2023-10-08T09:52:24;95112.66;;;21.41;26.18
16793;BME280;8513;42.662;23.350;2023-10-08T09:55:00;95128.66;;;21.48;26.40
16793;BME280;8513;42.662;23.350;2023-10-08T09:57:29;95127.03;;;21.47;25.69
16793;BME280;8513;42.662;23.350;2023-10-08T09:59:54;95122.13;;;21.37;25.73
16793;BME280;8513;42.662;23.350;2023-10-08T10:02:23;95118.75;;;21.55;25.85
16793;BME280;8513;42.662;23.350;2023-10-08T10:04:51;95113.56;;;21.60;26.30
16793;BME280;8513;42.662;23.350;2023-10-08T10:07:18;95115.06;;;21.74;25.44
16793;BME280;8513;42.662;23.350;2023-10-08T10:09:46;95111.78;;;21.72;25.32
16793;BME280;8513;42.662;23.350;2023-10-08T10:12:20;95109.63;;;21.63;25.09
16793;BME280;8513;42.662;23.350;2023-10-08T10:14:52;95115.25;;;21.54;25.58
16793;BME280;8513;42.662;23.350;2023-10-08T10:17:22;95117.94;;;21.54;25.83
16793;BME280;8513;42.662;23.350;2023-10-08T10:19:59;95090.56;;;21.52;25.80
16793;BME280;8513;42.662;23.350;2023-10-08T10:24:54;95094.28;;;21.76;25.32
16793;BME280;8513;42.662;23.350;2023-10-08T10:27:20;95091.06;;;21.86;25.42
16793;BME280;8513;42.662;23.350;2023-10-08T10:29:46;95086.69;;;21.92;25.59
16793;BME280;8513;42.662;23.350;2023-10-08T10:32:16;95072.22;;;21.99;25.61
16793;BME280;8513;42.662;23.350;2023-10-08T10:34:43;95074.44;;;22.28;25.01
16793;BME280;8513;42.662;23.350;2023-10-08T10:37:09;95067.16;;;22.35;25.66
16793;BME280;8513;42.662;23.350;2023-10-08T10:39:54;95066.31;;;22.53;24.86
16793;BME280;8513;42.662;23.350;2023-10-08T10:42:28;95060.91;;;22.71;24.61
16793;BME280;8513;42.662;23.350;2023-10-08T10:44:54;95062.47;;;22.79;25.11
16793;BME280;8513;42.662;23.350;2023-10-08T10:47:21;95051.91;;;22.96;25.34
16793;BME280;8513;42.662;23.350;2023-10-08T10:49:49;95058.72;;;23.28;24.87
16793;BME280;8513;42.662;23.350;2023-10-08T10:52:33;95058.25;;;23.43;24.76
16793;BME280;8513;42.662;23.350;2023-10-08T10:55:18;95057.31;;;23.49;24.75
16793;BME280;8513;42.662;23.350;2023-10-08T10:57:54;95058.06;;;23.68;24.76
16793;BME280;8513;42.662;23.350;2023-10-08T11:00:22;95047.66;;;23.60;24.81
16793;BME280;8513;42.662;23.350;2023-10-08T11:03:14;95052.00;;;23.61;24.64
16793;BME280;8513;42.662;23.350;2023-10-08T11:05:50;95042.75;;;23.57;24.65
16793;BME280;8513;42.662;23.350;2023-10-08T11:08:17;95057.81;;;23.58;24.51
16793;BME280;8513;42.662;23.350;2023-10-08T11:10:44;95047.34;;;23.68;24.84
16793;BME280;8513;42.662;23.350;2023-10-08T11:13:34;95047.56;;;23.78;24.55
16793;BME280;8513;42.662;23.350;2023-10-08T11:16:07;95039.28;;;23.92;24.58
16793;BME280;8513;42.662;23.350;2023-10-08T11:18:34;95036.94;;;24.07;24.55
16793;BME280;8513;42.662;23.350;2023-10-08T11:21:09;95041.47;;;24.30;24.11
16793;BME280;8513;42.662;23.350;2023-10-08T11:23:46;95025.41;;;24.59;24.03
16793;BME280;8513;42.662;23.350;2023-10-08T11:26:17;95030.13;;;24.80;24.01
16793;BME280;8513;42.662;23.350;2023-10-08T11:28:44;95026.91;;;24.95;23.40
16793;BME280;8513;42.662;23.350;2023-10-08T11:31:17;95024.31;;;25.00;23.36
16793;BME280;8513;42.662;23.350;2023-10-08T11:33:47;95019.41;;;24.97;24.15
16793;BME280;8513;42.662;23.350;2023-10-08T11:36:20;95002.13;;;24.93;23.76
16793;BME280;8513;42.662;23.350;2023-10-08T11:38:53;95029.56;;;24.78;23.66
16793;BME280;8513;42.662;23.350;2023-10-08T11:41:21;95013.63;;;24.60;24.29
16793;BME280;8513;42.662;23.350;2023-10-08T11:43:57;95011.63;;;24.55;24.86
16793;BME280;8513;42.662;23.350;2023-10-08T11:46:30;95018.63;;;24.56;24.29
16793;BME280;8513;42.662;23.350;2023-10-08T11:49:06;95025.41;;;24.59;24.42
16793;BME280;8513;42.662;23.350;2023-10-08T11:51:35;95013.31;;;24.45;24.67
16793;BME280;8513;42.662;23.350;2023-10-08T11:54:04;95020.56;;;24.44;24.34
16793;BME280;8513;42.662;23.350;2023-10-08T11:56:37;95019.94;;;24.42;24.57
16793;BME280;8513;42.662;23.350;2023-10-08T11:59:04;95023.00;;;24.34;24.67
16793;BME280;8513;42.662;23.350;2023-10-08T12:01:37;94999.59;;;23.94;25.13
16793;BME280;8513;42.662;23.350;2023-10-08T12:04:08;95007.66;;;23.82;25.39
16793;BME280;8513;42.662;23.350;2023-10-08T12:06:41;95010.81;;;23.91;25.27
16793;BME280;8513;42.662;23.350;2023-10-08T12:09:15;95019.56;;;23.98;25.27
16793;BME280;8513;42.662;23.350;2023-10-08T12:11:41;95009.13;;;24.13;25.09
16793;BME280;8513;42.662;23.350;2023-10-08T12:14:07;95012.00;;;24.47;25.00
16793;BME280;8513;42.662;23.350;2023-10-08T12:16:34;94997.63;;;24.82;24.56
16793;BME280;8513;42.662;23.350;2023-10-08T12:19:04;95007.00;;;25.25;24.09
16793;BME280;8513;42.662;23.350;2023-10-08T12:21:41;94990.38;;;26.01;23.02
16793;BME280;8513;42.662;23.350;2023-10-08T12:24:07;94995.56;;;26.68;22.08
16793;BME280;8513;42.662;23.350;2023-10-08T12:26:36;95017.94;;;27.82;20.73
16793;BME280;8513;42.662;23.350;2023-10-08T12:29:01;95003.16;;;28.43;20.46
16793;BME280;8513;42.662;23.350;2023-10-08T12:31:27;95016.16;;;29.50;18.99
16793;BME280;8513;42.662;23.350;2023-10-08T12:33:54;95013.47;;;30.86;17.68
16793;BME280;8513;42.662;23.350;2023-10-08T12:36:28;95008.72;;;32.39;16.41
16793;BME280;8513;42.662;23.350;2023-10-08T12:38:58;95007.19;;;31.70;16.61
16793;BME280;8513;42.662;23.350;2023-10-08T12:41:25;95005.59;;;29.63;18.61
16793;BME280;8513;42.662;23.350;2023-10-08T12:43:52;95004.63;;;28.13;20.40
16793;BME280;8513;42.662;23.350;2023-10-08T12:46:18;95000.59;;;28.15;20.34
16793;BME280;8513;42.662;23.350;2023-10-08T12:48:49;95010.19;;;29.22;19.32
16793;BME280;8513;42.662;23.350;2023-10-08T12:51:18;95007.25;;;30.81;17.71
16793;BME280;8513;42.662;23.350;2023-10-08T12:53:44;94990.13;;;31.25;17.22
16793;BME280;8513;42.662;23.350;2023-10-08T12:56:30;94995.63;;;31.19;17.33
16793;BME280;8513;42.662;23.350;2023-10-08T12:59:13;94986.47;;;30.55;17.98
16793;BME280;8513;42.662;23.350;2023-10-08T13:01:49;94994.47;;;30.01;18.34
16793;BME280;8513;42.662;23.350;2023-10-08T13:04:19;94994.50;;;29.55;18.83
16793;BME280;8513;42.662;23.350;2023-10-08T13:06:54;95000.16;;;29.12;19.27
16793;BME280;8513;42.662;23.350;2023-10-08T13:09:23;94990.06;;;30.30;18.32
16793;BME280;8513;42.662;23.350;2023-10-08T13:11:48;94989.97;;;32.62;16.00
16793;BME280;8513;42.662;23.350;2023-10-08T13:14:13;94985.00;;;34.93;13.86
16793;BME280;8513;42.662;23.350;2023-10-08T13:16:39;94989.34;;;36.52;12.81
16793;BME280;8513;42.662;23.350;2023-10-08T13:19:05;94996.13;;;37.29;12.52
16793;BME280;8513;42.662;23.350;2023-10-08T13:21:33;94986.94;;;37.16;11.83
16793;BME280;8513;42.662;23.350;2023-10-08T13:23:58;94981.16;;;34.94;13.53
16793;BME280;8513;42.662;23.350;2023-10-08T13:26:29;94964.00;;;32.50;15.56
16793;BME280;8513;42.662;23.350;2023-10-08T13:28:58;94972.47;;;30.88;16.80
16793;BME280;8513;42.662;23.350;2023-10-08T13:31:26;94974.16;;;31.18;17.04
16793;BME280;8513;42.662;23.350;2023-10-08T13:33:52;94969.81;;;32.63;15.90